Terminal Aerodrome Forecast
Issued by NWS Burlington, VT

Home | Current Version | Previous Version | Text Only | Print | Product List | Glossary On
Versions: 1 2 3 4 5 6 7 8 9 10 11 12 13 14 15 16 17 18 19 20 21 22
000
FTUS41 KBTV 251135
TAFBTV
TAF
KBTV 251135Z 2512/2612 00000KT P6SM SCT250
     FM251400 21006KT P6SM FEW050 FEW250
     FM251700 20007KT P6SM BKN050
     FM252200 20009KT P6SM -SHRA OVC030
     FM260100 24010KT P6SM OVC025
     FM260900 28011KT P6SM OVC025=

USA.gov is the U.S. government's official web portal to all federal, state and local government web resources and services.